BEL6KU EBBR-EDDF
Flight info
| Callsign | BEL6KU |
|---|---|
| Flight time | 0h 39m |
| Altitude | 23000 |
| Route | SPI T180 NIVNU T847 IMCOM IMCOM1A |
| Aircraft | A320/M-SDE3FGHIRWY/LB1 |
Departure
| Time | 2026-05-06 18:32 |
|---|---|
| Airport | Brussels Airport (EBBR) |
Arrival
| Time | 2026-05-06 19:12 |
|---|---|
| Airport | Frankfurt Main Airport (EDDF) |
| Time | Latitude | Longitude | Altitude | Speed | Heading |
|---|---|---|---|---|---|
| 2026-05-06 18:10 | 50.90483 | 4.48840 | 117 ft | 0 kts | 155° |
| 2026-05-06 18:23 | 50.90484 | 4.48840 | 117 ft | 0 kts | 155° |
| 2026-05-06 18:23 | 50.90487 | 4.48838 | 121 ft | 2 kts | 155° |
| 2026-05-06 18:23 | 50.90501 | 4.48826 | 117 ft | 2 kts | 152° |
| 2026-05-06 18:24 | 50.90515 | 4.48813 | 118 ft | 2 kts | 146° |
| 2026-05-06 18:24 | 50.90529 | 4.48798 | 116 ft | 2 kts | 137° |
| 2026-05-06 18:24 | 50.90540 | 4.48779 | 117 ft | 2 kts | 122° |
| 2026-05-06 18:24 | 50.90547 | 4.48756 | 118 ft | 2 kts | 93° |
| 2026-05-06 18:25 | 50.90546 | 4.48731 | 120 ft | 2 kts | 68° |
| 2026-05-06 18:25 | 50.90543 | 4.48720 | 117 ft | 0 kts | 64° |
| 2026-05-06 18:27 | 50.90546 | 4.48732 | 120 ft | 4 kts | 66° |
| 2026-05-06 18:27 | 50.90575 | 4.48834 | 119 ft | 16 kts | 65° |
| 2026-05-06 18:27 | 50.90625 | 4.49007 | 118 ft | 18 kts | 65° |
| 2026-05-06 18:27 | 50.90628 | 4.49146 | 121 ft | 12 kts | 144° |
| 2026-05-06 18:28 | 50.90544 | 4.49208 | 119 ft | 17 kts | 155° |
| 2026-05-06 18:28 | 50.90436 | 4.49287 | 122 ft | 16 kts | 155° |
| 2026-05-06 18:28 | 50.90345 | 4.49360 | 124 ft | 13 kts | 141° |
| 2026-05-06 18:28 | 50.90269 | 4.49400 | 126 ft | 12 kts | 192° |
| 2026-05-06 18:29 | 50.90140 | 4.49347 | 128 ft | 25 kts | 194° |
| 2026-05-06 18:29 | 50.89974 | 4.49278 | 133 ft | 24 kts | 195° |
| 2026-05-06 18:29 | 50.89830 | 4.49219 | 142 ft | 21 kts | 194° |
| 2026-05-06 18:29 | 50.89689 | 4.49162 | 149 ft | 17 kts | 195° |
| 2026-05-06 18:30 | 50.89601 | 4.49181 | 155 ft | 11 kts | 141° |
| 2026-05-06 18:30 | 50.89511 | 4.49163 | 160 ft | 14 kts | 193° |
| 2026-05-06 18:30 | 50.89409 | 4.49124 | 164 ft | 20 kts | 194° |
| 2026-05-06 18:30 | 50.89298 | 4.49079 | 168 ft | 0 kts | 194° |
| 2026-05-06 18:31 | 50.89286 | 4.49074 | 161 ft | 9 kts | 194° |
| 2026-05-06 18:31 | 50.89207 | 4.49042 | 175 ft | 9 kts | 194° |
| 2026-05-06 18:31 | 50.89156 | 4.49062 | 176 ft | 11 kts | 129° |
| 2026-05-06 18:32 | 50.89201 | 4.49328 | 176 ft | 53 kts | 70° |
| 2026-05-06 18:32 | 50.89414 | 4.50249 | 176 ft | 122 kts | 70° |
| 2026-05-06 18:32 | 50.89757 | 4.51765 | 352 ft | 158 kts | 71° |
| 2026-05-06 18:32 | 50.90139 | 4.53388 | 1146 ft | 156 kts | 64° |
| 2026-05-06 18:33 | 50.90624 | 4.54924 | 1975 ft | 155 kts | 60° |
| 2026-05-06 18:33 | 50.91146 | 4.56412 | 2732 ft | 154 kts | 60° |
| 2026-05-06 18:33 | 50.91645 | 4.57908 | 3405 ft | 155 kts | 60° |
| 2026-05-06 18:33 | 50.92175 | 4.59504 | 3810 ft | 174 kts | 60° |
| 2026-05-06 18:34 | 50.92776 | 4.61318 | 4146 ft | 198 kts | 60° |
| 2026-05-06 18:34 | 50.93460 | 4.63375 | 4521 ft | 223 kts | 60° |
| 2026-05-06 18:34 | 50.94075 | 4.65783 | 5001 ft | 249 kts | 69° |
| 2026-05-06 18:34 | 50.94619 | 4.68485 | 5678 ft | 264 kts | 71° |
| 2026-05-06 18:35 | 50.95148 | 4.71313 | 6561 ft | 270 kts | 71° |
| 2026-05-06 18:35 | 50.95457 | 4.74283 | 7445 ft | 278 kts | 89° |
| 2026-05-06 18:35 | 50.95119 | 4.77335 | 8348 ft | 286 kts | 108° |
| 2026-05-06 18:35 | 50.94136 | 4.80107 | 9252 ft | 293 kts | 128° |
| 2026-05-06 18:36 | 50.92871 | 4.82690 | 10107 ft | 299 kts | 122° |
| 2026-05-06 18:36 | 50.91777 | 4.85627 | 10493 ft | 322 kts | 116° |
| 2026-05-06 18:36 | 50.90742 | 4.88919 | 10787 ft | 345 kts | 115° |
| 2026-05-06 18:36 | 50.89686 | 4.92460 | 11161 ft | 363 kts | 114° |
| 2026-05-06 18:37 | 50.88588 | 4.96100 | 11837 ft | 370 kts | 115° |
| 2026-05-06 18:37 | 50.87844 | 4.98503 | 12310 ft | 374 kts | 116° |
| 2026-05-06 18:37 | 50.86192 | 5.03630 | 13350 ft | 380 kts | 117° |
| 2026-05-06 18:37 | 50.85009 | 5.07176 | 14018 ft | 385 kts | 117° |
| 2026-05-06 18:38 | 50.83738 | 5.10930 | 14694 ft | 388 kts | 118° |
| 2026-05-06 18:38 | 50.82451 | 5.14711 | 15373 ft | 392 kts | 118° |
| 2026-05-06 18:38 | 50.81158 | 5.18525 | 16058 ft | 395 kts | 118° |
| 2026-05-06 18:38 | 50.79859 | 5.22368 | 16763 ft | 398 kts | 118° |
| 2026-05-06 18:39 | 50.78552 | 5.26234 | 17437 ft | 401 kts | 118° |
| 2026-05-06 18:39 | 50.77232 | 5.30136 | 18108 ft | 405 kts | 118° |
| 2026-05-06 18:39 | 50.75902 | 5.34058 | 18686 ft | 409 kts | 118° |
| 2026-05-06 18:40 | 50.73216 | 5.41973 | 19819 ft | 416 kts | 118° |
| 2026-05-06 18:40 | 50.71846 | 5.46012 | 20390 ft | 418 kts | 118° |
| 2026-05-06 18:40 | 50.70465 | 5.50069 | 20938 ft | 421 kts | 118° |
| 2026-05-06 18:40 | 50.69069 | 5.54154 | 21466 ft | 424 kts | 119° |
| 2026-05-06 18:41 | 50.67661 | 5.58259 | 21976 ft | 427 kts | 118° |
| 2026-05-06 18:41 | 50.66244 | 5.62391 | 22516 ft | 429 kts | 118° |
| 2026-05-06 18:41 | 50.64829 | 5.66514 | 22843 ft | 428 kts | 119° |
| 2026-05-06 18:41 | 50.63415 | 5.70639 | 22902 ft | 427 kts | 118° |
| 2026-05-06 18:42 | 50.61999 | 5.74760 | 22897 ft | 427 kts | 119° |
| 2026-05-06 18:42 | 50.60586 | 5.78867 | 22897 ft | 426 kts | 119° |
| 2026-05-06 18:42 | 50.59171 | 5.82966 | 22901 ft | 426 kts | 119° |
| 2026-05-06 18:42 | 50.57749 | 5.87064 | 22900 ft | 426 kts | 119° |
| 2026-05-06 18:43 | 50.56327 | 5.91160 | 22901 ft | 426 kts | 119° |
| 2026-05-06 18:43 | 50.54901 | 5.95271 | 22902 ft | 427 kts | 119° |
| 2026-05-06 18:43 | 50.53482 | 5.99356 | 22905 ft | 427 kts | 119° |
| 2026-05-06 18:43 | 50.52078 | 6.03392 | 22899 ft | 426 kts | 119° |
| 2026-05-06 18:44 | 50.50658 | 6.07471 | 22903 ft | 425 kts | 119° |
| 2026-05-06 18:44 | 50.49236 | 6.11553 | 22900 ft | 425 kts | 119° |
| 2026-05-06 18:44 | 50.47812 | 6.15629 | 22888 ft | 427 kts | 120° |
| 2026-05-06 18:44 | 50.46374 | 6.19734 | 22888 ft | 429 kts | 120° |
| 2026-05-06 18:45 | 50.44931 | 6.23842 | 22889 ft | 430 kts | 120° |
| 2026-05-06 18:45 | 50.43488 | 6.27942 | 22889 ft | 430 kts | 120° |
| 2026-05-06 18:45 | 50.42037 | 6.32057 | 22872 ft | 431 kts | 120° |
| 2026-05-06 18:45 | 50.41079 | 6.34777 | 22875 ft | 430 kts | 120° |
| 2026-05-06 18:46 | 50.39143 | 6.40261 | 22877 ft | 430 kts | 120° |
| 2026-05-06 18:46 | 50.37697 | 6.44367 | 22876 ft | 430 kts | 119° |
| 2026-05-06 18:46 | 50.36499 | 6.48658 | 22870 ft | 432 kts | 110° |
| 2026-05-06 18:46 | 50.35747 | 6.53180 | 22870 ft | 434 kts | 101° |
| 2026-05-06 18:47 | 50.35396 | 6.57880 | 22870 ft | 435 kts | 96° |
| 2026-05-06 18:47 | 50.35205 | 6.60974 | 22871 ft | 435 kts | 96° |
| 2026-05-06 18:47 | 50.34912 | 6.65681 | 22873 ft | 435 kts | 96° |
| 2026-05-06 18:47 | 50.34515 | 6.71932 | 22871 ft | 435 kts | 96° |
| 2026-05-06 18:48 | 50.34210 | 6.76642 | 22871 ft | 435 kts | 96° |
| 2026-05-06 18:48 | 50.33906 | 6.81345 | 22869 ft | 435 kts | 97° |
| 2026-05-06 18:48 | 50.33581 | 6.84503 | 22863 ft | 434 kts | 103° |
| 2026-05-06 18:48 | 50.32733 | 6.89001 | 22864 ft | 433 kts | 112° |
| 2026-05-06 18:49 | 50.31522 | 6.93246 | 22859 ft | 432 kts | 116° |
| 2026-05-06 18:49 | 50.30229 | 6.97555 | 22865 ft | 432 kts | 116° |
| 2026-05-06 18:49 | 50.28956 | 7.01802 | 22864 ft | 432 kts | 116° |
| 2026-05-06 18:49 | 50.27698 | 7.06004 | 22864 ft | 432 kts | 116° |
| 2026-05-06 18:50 | 50.26426 | 7.10266 | 22864 ft | 432 kts | 116° |
| 2026-05-06 18:50 | 50.25155 | 7.14527 | 22188 ft | 436 kts | 116° |
| 2026-05-06 18:50 | 50.23858 | 7.18866 | 21012 ft | 443 kts | 116° |
| 2026-05-06 18:50 | 50.22556 | 7.23210 | 20139 ft | 441 kts | 116° |
| 2026-05-06 18:51 | 50.21255 | 7.27541 | 19358 ft | 438 kts | 116° |
| 2026-05-06 18:51 | 50.19965 | 7.31828 | 18639 ft | 435 kts | 116° |
| 2026-05-06 18:51 | 50.18750 | 7.36131 | 17900 ft | 432 kts | 114° |
| 2026-05-06 18:51 | 50.17653 | 7.40487 | 17172 ft | 428 kts | 111° |
| 2026-05-06 18:52 | 50.16642 | 7.44828 | 16467 ft | 424 kts | 110° |
| 2026-05-06 18:52 | 50.15672 | 7.49139 | 15837 ft | 419 kts | 110° |
| 2026-05-06 18:52 | 50.14713 | 7.53405 | 15215 ft | 415 kts | 111° |
| 2026-05-06 18:52 | 50.13745 | 7.57610 | 14604 ft | 411 kts | 111° |
| 2026-05-06 18:53 | 50.12761 | 7.61767 | 13996 ft | 407 kts | 111° |
| 2026-05-06 18:53 | 50.11797 | 7.65894 | 13377 ft | 403 kts | 108° |
| 2026-05-06 18:53 | 50.11377 | 7.70195 | 12702 ft | 401 kts | 90° |
| 2026-05-06 18:53 | 50.11652 | 7.74495 | 11983 ft | 399 kts | 82° |
| 2026-05-06 18:54 | 50.12044 | 7.78760 | 11291 ft | 395 kts | 82° |
| 2026-05-06 18:54 | 50.12440 | 7.82927 | 10609 ft | 392 kts | 82° |
| 2026-05-06 18:54 | 50.12836 | 7.87114 | 10039 ft | 389 kts | 82° |
| 2026-05-06 18:54 | 50.13223 | 7.91285 | 9848 ft | 389 kts | 82° |
| 2026-05-06 18:55 | 50.13599 | 7.95402 | 9832 ft | 386 kts | 83° |
| 2026-05-06 18:55 | 50.13978 | 7.99587 | 9833 ft | 392 kts | 82° |
| 2026-05-06 18:55 | 50.14360 | 8.03804 | 9847 ft | 394 kts | 83° |
| 2026-05-06 18:55 | 50.14739 | 8.08032 | 9832 ft | 394 kts | 83° |
| 2026-05-06 18:56 | 50.15120 | 8.12271 | 9837 ft | 394 kts | 83° |
| 2026-05-06 18:56 | 50.15498 | 8.16512 | 9834 ft | 394 kts | 83° |
| 2026-05-06 18:56 | 50.15870 | 8.20752 | 9834 ft | 394 kts | 83° |
| 2026-05-06 18:56 | 50.16240 | 8.24987 | 9836 ft | 395 kts | 83° |
| 2026-05-06 18:57 | 50.16612 | 8.29234 | 9824 ft | 395 kts | 83° |
| 2026-05-06 18:57 | 50.16984 | 8.33481 | 9830 ft | 395 kts | 83° |
| 2026-05-06 18:57 | 50.17355 | 8.37725 | 9832 ft | 395 kts | 83° |
| 2026-05-06 18:57 | 50.17717 | 8.41917 | 9832 ft | 394 kts | 83° |
| 2026-05-06 18:58 | 50.18082 | 8.46155 | 9835 ft | 395 kts | 83° |
| 2026-05-06 18:58 | 50.18448 | 8.50400 | 9835 ft | 394 kts | 83° |
| 2026-05-06 18:58 | 50.18810 | 8.54640 | 9835 ft | 394 kts | 83° |
| 2026-05-06 18:58 | 50.19169 | 8.58883 | 9835 ft | 394 kts | 83° |
| 2026-05-06 18:59 | 50.19527 | 8.63131 | 9834 ft | 394 kts | 83° |
| 2026-05-06 18:59 | 50.19884 | 8.67374 | 9832 ft | 394 kts | 83° |
| 2026-05-06 18:59 | 50.20241 | 8.71579 | 9758 ft | 383 kts | 83° |
| 2026-05-06 18:59 | 50.20580 | 8.75595 | 9628 ft | 364 kts | 83° |
| 2026-05-06 19:00 | 50.20899 | 8.79400 | 9481 ft | 337 kts | 83° |
| 2026-05-06 19:00 | 50.21191 | 8.82879 | 9318 ft | 311 kts | 84° |
| 2026-05-06 19:00 | 50.21503 | 8.86149 | 8846 ft | 303 kts | 79° |
| 2026-05-06 19:00 | 50.22008 | 8.89270 | 8506 ft | 299 kts | 73° |
| 2026-05-06 19:01 | 50.22709 | 8.92354 | 8119 ft | 297 kts | 70° |
| 2026-05-06 19:01 | 50.23418 | 8.95368 | 7733 ft | 294 kts | 70° |
| 2026-05-06 19:01 | 50.24110 | 8.98329 | 7347 ft | 292 kts | 70° |
| 2026-05-06 19:01 | 50.24802 | 9.01300 | 6956 ft | 290 kts | 70° |
| 2026-05-06 19:02 | 50.25498 | 9.04288 | 6548 ft | 288 kts | 70° |
| 2026-05-06 19:02 | 50.26175 | 9.07192 | 6158 ft | 287 kts | 70° |
| 2026-05-06 19:02 | 50.26755 | 9.10157 | 5736 ft | 284 kts | 84° |
| 2026-05-06 19:02 | 50.26574 | 9.13161 | 5322 ft | 277 kts | 112° |
| 2026-05-06 19:03 | 50.25552 | 9.15631 | 4931 ft | 270 kts | 140° |
| 2026-05-06 19:03 | 50.23943 | 9.17021 | 4533 ft | 263 kts | 169° |
| 2026-05-06 19:03 | 50.22158 | 9.17021 | 4106 ft | 256 kts | 199° |
| 2026-05-06 19:03 | 50.20639 | 9.15679 | 3986 ft | 254 kts | 221° |
| 2026-05-06 19:04 | 50.19299 | 9.13861 | 3989 ft | 253 kts | 224° |
| 2026-05-06 19:04 | 50.18038 | 9.12085 | 3987 ft | 234 kts | 224° |
| 2026-05-06 19:04 | 50.17060 | 9.10167 | 3992 ft | 224 kts | 244° |
| 2026-05-06 19:04 | 50.16280 | 9.08067 | 3995 ft | 224 kts | 238° |
| 2026-05-06 19:05 | 50.15404 | 9.06076 | 3999 ft | 222 kts | 239° |
| 2026-05-06 19:05 | 50.14701 | 9.03922 | 4000 ft | 224 kts | 248° |
| 2026-05-06 19:05 | 50.14142 | 9.01666 | 3998 ft | 222 kts | 250° |
| 2026-05-06 19:05 | 50.13613 | 8.99394 | 3998 ft | 223 kts | 250° |
| 2026-05-06 19:06 | 50.13083 | 8.97119 | 4000 ft | 224 kts | 250° |
| 2026-05-06 19:06 | 50.12550 | 8.94843 | 3999 ft | 223 kts | 250° |
| 2026-05-06 19:06 | 50.12019 | 8.92574 | 4002 ft | 223 kts | 250° |
| 2026-05-06 19:06 | 50.11470 | 8.90234 | 3996 ft | 215 kts | 250° |
| 2026-05-06 19:07 | 50.10975 | 8.88130 | 3992 ft | 199 kts | 250° |
| 2026-05-06 19:07 | 50.10517 | 8.86181 | 3975 ft | 185 kts | 251° |
| 2026-05-06 19:07 | 50.10083 | 8.84338 | 3822 ft | 179 kts | 251° |
| 2026-05-06 19:07 | 50.09657 | 8.82528 | 3610 ft | 176 kts | 251° |
| 2026-05-06 19:08 | 50.09237 | 8.80746 | 3381 ft | 175 kts | 251° |
| 2026-05-06 19:08 | 50.08820 | 8.78978 | 3157 ft | 174 kts | 251° |
| 2026-05-06 19:08 | 50.08403 | 8.77208 | 2914 ft | 173 kts | 251° |
| 2026-05-06 19:08 | 50.07989 | 8.75455 | 2681 ft | 172 kts | 252° |
| 2026-05-06 19:09 | 50.07575 | 8.73703 | 2476 ft | 172 kts | 252° |
| 2026-05-06 19:09 | 50.07164 | 8.71969 | 2219 ft | 168 kts | 253° |
| 2026-05-06 19:09 | 50.06772 | 8.70319 | 1988 ft | 157 kts | 253° |
| 2026-05-06 19:09 | 50.06405 | 8.68770 | 1769 ft | 148 kts | 253° |
| 2026-05-06 19:10 | 50.06061 | 8.67320 | 1590 ft | 136 kts | 253° |
| 2026-05-06 19:10 | 50.05739 | 8.65961 | 1405 ft | 132 kts | 252° |
| 2026-05-06 19:10 | 50.05421 | 8.64624 | 1229 ft | 131 kts | 254° |
| 2026-05-06 19:10 | 50.05126 | 8.63300 | 1029 ft | 131 kts | 254° |
| 2026-05-06 19:11 | 50.04828 | 8.61960 | 871 ft | 131 kts | 252° |
| 2026-05-06 19:11 | 50.04496 | 8.60654 | 700 ft | 130 kts | 251° |
| 2026-05-06 19:11 | 50.04178 | 8.59361 | 532 ft | 128 kts | 252° |
| 2026-05-06 19:11 | 50.03868 | 8.58070 | 379 ft | 125 kts | 251° |
| 2026-05-06 19:12 | 50.03609 | 8.56987 | 361 ft | 84 kts | 249° |
| 2026-05-06 19:12 | 50.03460 | 8.56360 | 361 ft | 41 kts | 248° |
| 2026-05-06 19:12 | 50.03432 | 8.56003 | 360 ft | 24 kts | 289° |
| 2026-05-06 19:12 | 50.03449 | 8.55935 | 359 ft | 0 kts | 289° |
| 2026-05-06 19:13 | 50.03455 | 8.55908 | 359 ft | 5 kts | 289° |
| 2026-05-06 19:13 | 50.03462 | 8.55845 | 355 ft | 6 kts | 279° |
| 2026-05-06 19:13 | 50.03469 | 8.55777 | 353 ft | 6 kts | 279° |
| 2026-05-06 19:14 | 50.03479 | 8.55686 | 356 ft | 13 kts | 279° |
| 2026-05-06 19:14 | 50.03494 | 8.55523 | 352 ft | 16 kts | 266° |
| 2026-05-06 19:14 | 50.03461 | 8.55338 | 351 ft | 19 kts | 249° |
| 2026-05-06 19:14 | 50.03413 | 8.55139 | 355 ft | 21 kts | 249° |
| 2026-05-06 19:15 | 50.03359 | 8.54913 | 359 ft | 23 kts | 250° |
| 2026-05-06 19:15 | 50.03303 | 8.54680 | 361 ft | 22 kts | 250° |
| 2026-05-06 19:15 | 50.03285 | 8.54505 | 357 ft | 13 kts | 310° |
| 2026-05-06 19:15 | 50.03332 | 8.54470 | 364 ft | 5 kts | 340° |
| 2026-05-06 19:16 | 50.03393 | 8.54435 | 370 ft | 0 kts | 340° |
| 2026-05-06 19:16 | 50.03399 | 8.54431 | 370 ft | 7 kts | 340° |
| 2026-05-06 19:16 | 50.03513 | 8.54367 | 371 ft | 21 kts | 341° |
| 2026-05-06 19:17 | 50.03646 | 8.54317 | 370 ft | 19 kts | 25° |
| 2026-05-06 19:17 | 50.03706 | 8.54517 | 367 ft | 22 kts | 69° |
| 2026-05-06 19:17 | 50.03764 | 8.54758 | 364 ft | 22 kts | 69° |
| 2026-05-06 19:17 | 50.03818 | 8.54982 | 362 ft | 18 kts | 71° |
| 2026-05-06 19:18 | 50.03857 | 8.55145 | 365 ft | 15 kts | 69° |
| 2026-05-06 19:18 | 50.03884 | 8.55259 | 362 ft | 10 kts | 70° |
| 2026-05-06 19:18 | 50.03907 | 8.55358 | 359 ft | 9 kts | 70° |
| 2026-05-06 19:18 | 50.03927 | 8.55446 | 362 ft | 9 kts | 70° |
| 2026-05-06 19:19 | 50.03968 | 8.55616 | 361 ft | 24 kts | 69° |
| 2026-05-06 19:19 | 50.04032 | 8.55873 | 359 ft | 27 kts | 71° |
| 2026-05-06 19:19 | 50.04093 | 8.56135 | 349 ft | 24 kts | 69° |
| 2026-05-06 19:19 | 50.04129 | 8.56281 | 348 ft | 13 kts | 70° |
| 2026-05-06 19:20 | 50.04134 | 8.56304 | 347 ft | 5 kts | 70° |
| 2026-05-06 19:20 | 50.04163 | 8.56428 | 348 ft | 13 kts | 70° |
| 2026-05-06 19:20 | 50.04191 | 8.56548 | 350 ft | 10 kts | 70° |
| 2026-05-06 19:20 | 50.04213 | 8.56640 | 354 ft | 8 kts | 69° |
| 2026-05-06 19:21 | 50.04234 | 8.56730 | 352 ft | 10 kts | 70° |
| 2026-05-06 19:21 | 50.04259 | 8.56833 | 355 ft | 12 kts | 69° |
| 2026-05-06 19:21 | 50.04304 | 8.57014 | 355 ft | 21 kts | 69° |
| 2026-05-06 19:21 | 50.04342 | 8.57176 | 350 ft | 11 kts | 70° |
| 2026-05-06 19:22 | 50.04369 | 8.57286 | 351 ft | 11 kts | 69° |
| 2026-05-06 19:22 | 50.04396 | 8.57401 | 348 ft | 12 kts | 70° |
| 2026-05-06 19:22 | 50.04430 | 8.57525 | 338 ft | 12 kts | 53° |
| 2026-05-06 19:22 | 50.04492 | 8.57560 | 343 ft | 9 kts | 354° |
| 2026-05-06 19:23 | 50.04569 | 8.57512 | 347 ft | 13 kts | 334° |
| 2026-05-06 19:23 | 50.04589 | 8.57400 | 351 ft | 13 kts | 252° |
| 2026-05-06 19:23 | 50.04555 | 8.57258 | 354 ft | 14 kts | 249° |
| 2026-05-06 19:23 | 50.04525 | 8.57134 | 355 ft | 12 kts | 250° |
| 2026-05-06 19:24 | 50.04496 | 8.57010 | 351 ft | 11 kts | 250° |
| 2026-05-06 19:24 | 50.04488 | 8.56923 | 348 ft | 9 kts | 284° |
| 2026-05-06 19:24 | 50.04516 | 8.56882 | 351 ft | 8 kts | 344° |
| 2026-05-06 19:24 | 50.04571 | 8.56899 | 353 ft | 4 kts | 8° |
| 2026-05-06 19:25 | 50.04587 | 8.56904 | 353 ft | 7 kts | 10° |
| 2026-05-06 19:25 | 50.04723 | 8.56986 | 355 ft | 26 kts | 26° |
| 2026-05-06 19:25 | 50.04814 | 8.57049 | 356 ft | 6 kts | 24° |
| 2026-05-06 19:25 | 50.04862 | 8.57106 | 364 ft | 6 kts | 56° |
| 2026-05-06 19:26 | 50.04872 | 8.57143 | 358 ft | 0 kts | 69° |
| 2026-05-06 19:28 | 50.04872 | 8.57144 | 359 ft | 0 kts | 69° |